createdAt,value
2022-09-26T00:01:48.504Z,53.50
2022-09-26T00:06:53.847Z,53.50
2022-09-26T00:11:56.895Z,53.50
2022-09-26T00:16:59.967Z,53.50
2022-09-26T00:22:04.334Z,53.50
2022-09-26T00:27:07.295Z,54.00
2022-09-26T00:32:10.226Z,53.40
2022-09-26T00:37:14.574Z,54.00
2022-09-26T00:42:17.820Z,53.40
2022-09-26T00:47:37.023Z,54.00
2022-09-26T00:52:46.106Z,53.40
2022-09-26T00:57:53.339Z,53.40
2022-09-26T01:02:56.551Z,53.40
2022-09-26T01:08:01.975Z,53.40
2022-09-26T01:13:05.368Z,53.40
2022-09-26T01:18:08.594Z,53.40
2022-09-26T01:23:56.599Z,53.40
2022-09-26T01:29:25.099Z,53.40
2022-09-26T01:34:38.067Z,53.40
2022-09-26T01:39:52.118Z,53.40
2022-09-26T01:45:01.352Z,53.30
2022-09-26T01:50:10.494Z,53.40
2022-09-26T01:55:18.357Z,53.90
2022-09-26T02:00:21.616Z,53.80
2022-09-26T02:05:32.846Z,53.30
2022-09-26T02:10:40.119Z,53.90
2022-09-26T02:15:47.072Z,53.30
2022-09-26T02:20:58.968Z,53.30
2022-09-26T02:26:01.970Z,53.30
2022-09-26T02:31:08.492Z,53.30
2022-09-26T02:36:13.455Z,53.30
2022-09-26T02:41:23.746Z,53.30
2022-09-26T02:46:57.698Z,53.30
2022-09-26T02:52:18.365Z,53.30
2022-09-26T02:57:33.394Z,53.90
2022-09-26T03:02:43.002Z,53.30
2022-09-26T03:07:51.568Z,53.30
2022-09-26T03:12:55.462Z,53.30
2022-09-26T03:18:00.306Z,53.30
2022-09-26T03:23:05.569Z,53.30
2022-09-26T03:28:10.536Z,53.30
2022-09-26T03:33:13.733Z,53.20
2022-09-26T03:38:18.211Z,53.20
2022-09-26T03:43:24.212Z,53.30
2022-09-26T03:48:27.184Z,53.30
2022-09-26T03:53:32.744Z,53.20
2022-09-26T03:58:36.112Z,53.30
2022-09-26T04:03:40.620Z,53.30
2022-09-26T04:08:44.926Z,53.30
2022-09-26T04:13:53.327Z,53.20
2022-09-26T04:18:57.653Z,53.30
2022-09-26T04:24:02.680Z,53.30
2022-09-26T04:29:05.849Z,53.30
2022-09-26T04:34:10.863Z,53.30
2022-09-26T04:39:15.281Z,53.30
2022-09-26T04:44:18.403Z,53.30
2022-09-26T04:49:21.651Z,53.30
2022-09-26T04:54:26.315Z,53.30
2022-09-26T04:59:29.274Z,53.30
2022-09-26T05:04:33.439Z,53.30
2022-09-26T05:09:37.837Z,53.20
2022-09-26T05:14:42.320Z,53.30
2022-09-26T05:19:45.710Z,53.30
2022-09-26T05:25:07.341Z,53.30
2022-09-26T05:30:12.623Z,53.80
2022-09-26T05:35:15.726Z,53.30
2022-09-26T05:40:37.849Z,53.30
2022-09-26T05:45:41.266Z,53.30
2022-09-26T05:50:44.807Z,53.30
2022-09-26T05:55:51.942Z,53.30
2022-09-26T06:00:54.956Z,53.30
2022-09-26T06:06:03.002Z,53.30
2022-09-26T06:11:09.267Z,53.30
2022-09-26T06:16:14.746Z,53.30
2022-09-26T06:21:19.673Z,53.40
2022-09-26T06:26:25.913Z,53.40
2022-09-26T06:31:29.959Z,53.40
2022-09-26T06:36:33.096Z,52.40
2022-09-26T06:41:37.472Z,53.10
2022-09-26T06:46:40.459Z,53.00
2022-09-26T06:51:43.464Z,53.30
2022-09-26T06:56:47.816Z,53.40
2022-09-26T07:01:51.031Z,53.40
2022-09-26T07:06:54.655Z,53.40
2022-09-26T07:12:15.763Z,53.40
2022-09-26T07:17:19.489Z,53.40
2022-09-26T07:22:22.498Z,53.40
2022-09-26T07:27:27.153Z,53.30
2022-09-26T07:32:31.178Z,53.20
2022-09-26T07:37:34.163Z,53.20
2022-09-26T07:42:38.733Z,53.10
2022-09-26T07:47:58.986Z,53.10
2022-09-26T07:53:02.955Z,53.10
2022-09-26T07:58:07.940Z,53.20
2022-09-26T08:03:13.922Z,53.10
2022-09-26T08:08:16.964Z,53.10
2022-09-26T08:13:21.296Z,53.70
2022-09-26T08:18:24.249Z,53.10
2022-09-26T08:23:27.262Z,53.10
2022-09-26T08:28:31.707Z,53.00
2022-09-26T08:33:37.368Z,53.00
2022-09-26T08:38:40.533Z,52.90
2022-09-26T08:44:07.956Z,52.90
2022-09-26T08:49:42.930Z,52.70
2022-09-26T08:54:47.414Z,52.70
2022-09-26T08:59:54.549Z,52.60
2022-09-26T09:05:04.016Z,52.50
2022-09-26T09:10:16.216Z,52.40
2022-09-26T09:15:33.347Z,52.40
2022-09-26T09:20:52.387Z,52.40
2022-09-26T09:31:37.717Z,52.30
2022-09-26T09:36:45.803Z,52.30
2022-09-26T09:41:53.523Z,52.20
2022-09-26T09:46:57.880Z,52.10
2022-09-26T09:52:12.564Z,52.10
2022-09-26T09:57:39.579Z,52.00
2022-09-26T10:02:57.226Z,52.00
2022-09-26T10:08:00.504Z,52.00
2022-09-26T10:13:04.111Z,52.00
2022-09-26T10:18:26.758Z,52.00
2022-09-26T10:23:33.228Z,52.00
2022-09-26T10:28:44.372Z,51.90
2022-09-26T10:33:54.971Z,51.90
2022-09-26T10:39:17.721Z,51.90
2022-09-26T10:44:26.466Z,51.90
2022-09-26T10:49:36.280Z,51.80
2022-09-26T10:54:43.324Z,51.80
2022-09-26T10:59:47.160Z,51.70
2022-09-26T11:05:13.882Z,52.30
2022-09-26T11:10:24.324Z,51.60
2022-09-26T11:15:28.739Z,51.50
2022-09-26T11:20:47.261Z,51.50
2022-09-26T11:26:01.317Z,51.50
2022-09-26T11:31:13.345Z,51.40
2022-09-26T11:36:36.184Z,51.40
2022-09-26T11:41:53.600Z,51.40
2022-09-26T11:47:13.627Z,51.40
2022-09-26T11:52:30.624Z,52.00
2022-09-26T11:57:42.399Z,51.50
2022-09-26T12:03:17.128Z,51.40
2022-09-26T12:08:34.490Z,52.10
2022-09-26T12:13:48.294Z,51.50
2022-09-26T12:19:03.118Z,51.50
2022-09-26T12:24:17.008Z,51.40
2022-09-26T12:29:33.156Z,51.40
2022-09-26T12:35:01.950Z,51.30
2022-09-26T12:40:22.327Z,51.40
2022-09-26T12:45:43.144Z,51.40
2022-09-26T12:50:54.543Z,51.30
2022-09-26T12:56:06.841Z,51.30
2022-09-26T13:01:23.743Z,51.20
2022-09-26T13:07:14.289Z,51.10
2022-09-26T13:12:33.791Z,51.20
2022-09-26T13:17:41.663Z,51.10
2022-09-26T13:22:49.639Z,51.00
2022-09-26T13:28:03.970Z,51.00
2022-09-26T13:33:14.173Z,51.00
2022-09-26T13:38:35.160Z,50.90
2022-09-26T13:43:53.541Z,50.80
2022-09-26T13:49:04.424Z,50.90
2022-09-26T13:54:19.952Z,50.90
2022-09-26T13:59:34.526Z,50.90
2022-09-26T14:04:37.966Z,51.70
2022-09-26T14:09:53.432Z,51.20
2022-09-26T14:15:22.721Z,51.10
2022-09-26T14:20:28.328Z,51.00
2022-09-26T14:25:56.621Z,51.00
2022-09-26T14:31:36.799Z,50.90
2022-09-26T14:36:40.084Z,51.00
2022-09-26T14:41:43.357Z,51.00
2022-09-26T14:46:53.512Z,51.10
2022-09-26T14:52:01.571Z,51.10
2022-09-26T14:57:08.008Z,51.20
2022-09-26T15:02:28.603Z,51.30
2022-09-26T15:07:35.997Z,51.30
2022-09-26T15:12:44.247Z,51.40
2022-09-26T15:17:55.800Z,51.40
2022-09-26T15:23:00.085Z,51.60
2022-09-26T15:28:03.542Z,51.70
2022-09-26T15:33:09.688Z,52.30
2022-09-26T15:38:14.602Z,51.80
2022-09-26T15:43:21.443Z,51.90
2022-09-26T15:48:31.884Z,52.00
2022-09-26T15:53:39.573Z,52.10
2022-09-26T15:58:47.679Z,52.00
2022-09-26T16:03:58.312Z,52.40
2022-09-26T16:09:07.922Z,52.40
2022-09-26T16:14:26.792Z,52.40
2022-09-26T16:19:34.962Z,52.40
2022-09-26T16:24:38.120Z,52.60
2022-09-26T16:29:41.242Z,51.40
2022-09-26T16:34:46.058Z,51.60
2022-09-26T16:39:57.137Z,52.70
2022-09-26T16:45:05.075Z,52.40
2022-09-26T16:50:27.939Z,52.40
2022-09-26T16:55:35.018Z,52.40
2022-09-26T17:00:55.990Z,52.20
2022-09-26T17:06:01.379Z,52.30
2022-09-26T17:11:05.901Z,52.10
2022-09-26T17:16:10.301Z,52.20
2022-09-26T17:21:14.777Z,51.90
2022-09-26T17:26:23.912Z,51.70
2022-09-26T17:31:27.216Z,51.40
2022-09-26T17:36:31.797Z,51.10
2022-09-26T17:41:37.795Z,50.80
2022-09-26T17:46:42.342Z,50.50
2022-09-26T17:51:46.864Z,50.10
2022-09-26T17:56:49.949Z,50.10
2022-09-26T18:01:56.951Z,49.70
2022-09-26T18:07:04.398Z,49.50
2022-09-26T18:12:09.823Z,49.30
2022-09-26T18:17:15.903Z,49.10
2022-09-26T18:22:22.965Z,49.50
2022-09-26T18:27:26.029Z,49.40
2022-09-26T18:32:33.331Z,49.00
2022-09-26T18:37:38.164Z,48.70
2022-09-26T18:42:41.477Z,48.40
2022-09-26T18:47:45.247Z,47.50
2022-09-26T18:52:50.692Z,46.80
2022-09-26T18:58:11.230Z,46.30
2022-09-26T19:03:14.992Z,46.00
2022-09-26T19:08:32.901Z,46.20
2022-09-26T19:13:36.012Z,46.20
2022-09-26T19:18:40.614Z,45.90
2022-09-26T19:23:46.695Z,46.00
2022-09-26T19:28:49.843Z,46.10
2022-09-26T19:33:53.539Z,46.10
2022-09-26T19:38:58.037Z,46.00
2022-09-26T19:44:01.149Z,45.80
2022-09-26T19:49:05.708Z,46.00
2022-09-26T19:54:16.830Z,46.40
2022-09-26T19:59:22.949Z,47.10
2022-09-26T20:04:29.527Z,47.20
2022-09-26T20:09:33.979Z,47.40
2022-09-26T20:14:37.188Z,47.40
2022-09-26T20:19:45.249Z,47.20
2022-09-26T20:24:53.624Z,47.00
2022-09-26T20:30:15.443Z,47.10
2022-09-26T20:35:18.707Z,47.20
2022-09-26T20:40:24.189Z,47.40
2022-09-26T20:45:31.396Z,47.30
2022-09-26T20:50:35.540Z,47.50
2022-09-26T20:55:43.982Z,47.30
2022-09-26T21:00:47.607Z,47.40
2022-09-26T21:05:50.673Z,47.40
2022-09-26T21:10:55.996Z,47.40
2022-09-26T21:15:59.051Z,47.40
2022-09-26T21:21:07.461Z,47.60
2022-09-26T21:26:19.327Z,47.50
2022-09-26T21:31:25.165Z,47.30
2022-09-26T21:36:34.914Z,47.40
2022-09-26T21:41:40.233Z,47.60
2022-09-26T21:46:43.275Z,47.50
2022-09-26T21:51:51.251Z,47.70
2022-09-26T21:57:02.348Z,47.50
2022-09-26T22:02:05.712Z,47.50
2022-09-26T22:07:09.485Z,47.50
2022-09-26T22:12:13.983Z,47.60
2022-09-26T22:17:17.213Z,47.50
2022-09-26T22:22:21.619Z,47.70
2022-09-26T22:27:26.137Z,47.70
2022-09-26T22:32:29.308Z,47.70
2022-09-26T22:37:32.375Z,47.70
2022-09-26T22:42:36.787Z,47.70
2022-09-26T22:47:39.840Z,47.60
2022-09-26T22:52:43.884Z,47.60
2022-09-26T22:57:51.507Z,47.50
2022-09-26T23:02:54.606Z,47.50
2022-09-26T23:07:57.712Z,47.60
2022-09-26T23:13:02.192Z,47.50
2022-09-26T23:18:05.303Z,47.40
2022-09-26T23:23:09.340Z,47.50
2022-09-26T23:28:13.911Z,47.50
2022-09-26T23:33:16.995Z,47.70
2022-09-26T23:38:20.083Z,47.40
2022-09-26T23:43:24.664Z,47.50
2022-09-26T23:48:27.762Z,47.40
2022-09-26T23:53:31.172Z,47.40
2022-09-26T23:58:35.754Z,47.30
